sensor_id;sensor_type;location;lat;lon;timestamp;temperature;humidity
2477;DHT22;1249;51.270;6.756;2023-05-18T00:00:36;16.90;85.60
2477;DHT22;1249;51.270;6.756;2023-05-18T00:03:02;16.90;85.00
2477;DHT22;1249;51.270;6.756;2023-05-18T00:05:28;16.90;85.20
2477;DHT22;1249;51.270;6.756;2023-05-18T00:07:58;16.90;85.40
2477;DHT22;1249;51.270;6.756;2023-05-18T00:10:24;16.80;85.50
2477;DHT22;1249;51.270;6.756;2023-05-18T00:12:49;16.80;85.80
2477;DHT22;1249;51.270;6.756;2023-05-18T00:15:15;16.80;85.90
2477;DHT22;1249;51.270;6.756;2023-05-18T00:17:41;16.70;86.10
2477;DHT22;1249;51.270;6.756;2023-05-18T00:20:07;16.70;86.30
2477;DHT22;1249;51.270;6.756;2023-05-18T00:22:34;16.70;86.40
2477;DHT22;1249;51.270;6.756;2023-05-18T00:24:59;16.70;86.70
2477;DHT22;1249;51.270;6.756;2023-05-18T00:27:25;16.60;86.90
2477;DHT22;1249;51.270;6.756;2023-05-18T00:29:51;16.60;87.10
2477;DHT22;1249;51.270;6.756;2023-05-18T00:32:16;16.60;87.20
2477;DHT22;1249;51.270;6.756;2023-05-18T00:34:42;16.60;87.50
2477;DHT22;1249;51.270;6.756;2023-05-18T00:37:07;16.50;87.70
2477;DHT22;1249;51.270;6.756;2023-05-18T00:39:33;16.50;87.80
2477;DHT22;1249;51.270;6.756;2023-05-18T00:41:58;16.50;88.10
2477;DHT22;1249;51.270;6.756;2023-05-18T00:44:24;16.40;88.40
2477;DHT22;1249;51.270;6.756;2023-05-18T00:46:50;16.40;88.60
2477;DHT22;1249;51.270;6.756;2023-05-18T00:49:16;16.40;88.80
2477;DHT22;1249;51.270;6.756;2023-05-18T00:51:43;16.40;89.00
2477;DHT22;1249;51.270;6.756;2023-05-18T00:54:09;16.30;89.20
2477;DHT22;1249;51.270;6.756;2023-05-18T00:56:36;16.30;89.50
2477;DHT22;1249;51.270;6.756;2023-05-18T00:59:06;16.30;89.80
2477;DHT22;1249;51.270;6.756;2023-05-18T01:01:34;16.20;90.00
2477;DHT22;1249;51.270;6.756;2023-05-18T01:04:01;16.20;90.00
2477;DHT22;1249;51.270;6.756;2023-05-18T01:06:28;16.30;90.20
2477;DHT22;1249;51.270;6.756;2023-05-18T01:09:00;16.20;90.30
2477;DHT22;1249;51.270;6.756;2023-05-18T01:11:59;16.20;90.40
2477;DHT22;1249;51.270;6.756;2023-05-18T01:14:47;16.20;90.50
2477;DHT22;1249;51.270;6.756;2023-05-18T01:17:38;16.10;90.70
2477;DHT22;1249;51.270;6.756;2023-05-18T01:20:24;16.10;90.70
2477;DHT22;1249;51.270;6.756;2023-05-18T01:25:45;16.00;91.00
2477;DHT22;1249;51.270;6.756;2023-05-18T01:28:14;16.00;91.20
2477;DHT22;1249;51.270;6.756;2023-05-18T01:30:41;16.00;91.30
2477;DHT22;1249;51.270;6.756;2023-05-18T01:33:08;16.00;91.40
2477;DHT22;1249;51.270;6.756;2023-05-18T01:35:35;16.00;91.50
2477;DHT22;1249;51.270;6.756;2023-05-18T01:38:01;15.90;91.60
2477;DHT22;1249;51.270;6.756;2023-05-18T01:40:32;15.90;91.70
2477;DHT22;1249;51.270;6.756;2023-05-18T01:43:06;15.90;91.80
2477;DHT22;1249;51.270;6.756;2023-05-18T01:45:34;15.80;92.00
2477;DHT22;1249;51.270;6.756;2023-05-18T01:48:03;15.80;92.10
2477;DHT22;1249;51.270;6.756;2023-05-18T01:50:35;15.80;92.20
2477;DHT22;1249;51.270;6.756;2023-05-18T01:53:24;15.80;92.40
2477;DHT22;1249;51.270;6.756;2023-05-18T01:55:53;15.80;92.60
2477;DHT22;1249;51.270;6.756;2023-05-18T01:58:19;15.70;92.70
2477;DHT22;1249;51.270;6.756;2023-05-18T02:00:46;15.70;92.80
2477;DHT22;1249;51.270;6.756;2023-05-18T02:03:13;15.70;93.00
2477;DHT22;1249;51.270;6.756;2023-05-18T02:05:38;15.60;93.00
2477;DHT22;1249;51.270;6.756;2023-05-18T02:08:04;15.60;93.20
2477;DHT22;1249;51.270;6.756;2023-05-18T02:10:30;15.60;93.30
2477;DHT22;1249;51.270;6.756;2023-05-18T02:12:56;15.60;93.50
2477;DHT22;1249;51.270;6.756;2023-05-18T02:15:21;15.60;93.60
2477;DHT22;1249;51.270;6.756;2023-05-18T02:17:47;15.50;93.70
2477;DHT22;1249;51.270;6.756;2023-05-18T02:20:13;15.50;93.80
2477;DHT22;1249;51.270;6.756;2023-05-18T02:22:42;15.50;94.00
2477;DHT22;1249;51.270;6.756;2023-05-18T02:25:08;15.50;94.10
2477;DHT22;1249;51.270;6.756;2023-05-18T02:27:34;15.50;94.20
2477;DHT22;1249;51.270;6.756;2023-05-18T02:30:01;15.40;94.40
2477;DHT22;1249;51.270;6.756;2023-05-18T02:32:29;15.40;94.50
2477;DHT22;1249;51.270;6.756;2023-05-18T02:34:56;15.40;94.50
2477;DHT22;1249;51.270;6.756;2023-05-18T02:37:22;15.40;94.70
2477;DHT22;1249;51.270;6.756;2023-05-18T02:39:48;15.30;94.80
2477;DHT22;1249;51.270;6.756;2023-05-18T02:42:14;15.30;94.80
2477;DHT22;1249;51.270;6.756;2023-05-18T02:44:39;15.30;95.00
2477;DHT22;1249;51.270;6.756;2023-05-18T02:47:06;15.30;95.30
2477;DHT22;1249;51.270;6.756;2023-05-18T02:49:31;15.30;95.30
2477;DHT22;1249;51.270;6.756;2023-05-18T02:51:57;15.30;95.50
2477;DHT22;1249;51.270;6.756;2023-05-18T02:54:23;15.20;95.60
2477;DHT22;1249;51.270;6.756;2023-05-18T02:56:48;15.20;95.70
2477;DHT22;1249;51.270;6.756;2023-05-18T02:59:14;15.20;95.80
2477;DHT22;1249;51.270;6.756;2023-05-18T03:01:40;15.20;96.00
2477;DHT22;1249;51.270;6.756;2023-05-18T03:04:06;15.10;96.10
2477;DHT22;1249;51.270;6.756;2023-05-18T03:06:32;15.10;96.30
2477;DHT22;1249;51.270;6.756;2023-05-18T03:08:57;15.10;96.40
2477;DHT22;1249;51.270;6.756;2023-05-18T03:11:23;15.10;96.50
2477;DHT22;1249;51.270;6.756;2023-05-18T03:13:50;15.00;96.70
2477;DHT22;1249;51.270;6.756;2023-05-18T03:16:16;15.00;96.80
2477;DHT22;1249;51.270;6.756;2023-05-18T03:18:41;15.00;97.00
2477;DHT22;1249;51.270;6.756;2023-05-18T03:21:07;15.10;97.10
2477;DHT22;1249;51.270;6.756;2023-05-18T03:23:33;15.00;97.10
2477;DHT22;1249;51.270;6.756;2023-05-18T03:25:59;15.00;97.20
2477;DHT22;1249;51.270;6.756;2023-05-18T03:28:27;15.00;97.40
2477;DHT22;1249;51.270;6.756;2023-05-18T03:30:53;14.90;97.50
2477;DHT22;1249;51.270;6.756;2023-05-18T03:33:19;14.90;97.70
2477;DHT22;1249;51.270;6.756;2023-05-18T03:35:44;14.90;97.70
2477;DHT22;1249;51.270;6.756;2023-05-18T03:38:10;14.90;97.90
2477;DHT22;1249;51.270;6.756;2023-05-18T03:40:36;14.90;98.10
2477;DHT22;1249;51.270;6.756;2023-05-18T03:43:01;14.90;98.10
2477;DHT22;1249;51.270;6.756;2023-05-18T03:45:27;14.90;98.30
2477;DHT22;1249;51.270;6.756;2023-05-18T03:47:53;14.90;98.30
2477;DHT22;1249;51.270;6.756;2023-05-18T03:50:18;14.90;98.50
2477;DHT22;1249;51.270;6.756;2023-05-18T03:52:44;14.90;98.50
2477;DHT22;1249;51.270;6.756;2023-05-18T03:55:10;14.90;98.60
2477;DHT22;1249;51.270;6.756;2023-05-18T03:57:36;14.80;98.70
2477;DHT22;1249;51.270;6.756;2023-05-18T04:00:06;14.80;98.70
2477;DHT22;1249;51.270;6.756;2023-05-18T04:02:36;14.80;98.90
2477;DHT22;1249;51.270;6.756;2023-05-18T04:05:02;14.80;99.00
2477;DHT22;1249;51.270;6.756;2023-05-18T04:07:28;14.80;99.10
2477;DHT22;1249;51.270;6.756;2023-05-18T04:09:55;14.80;99.20
2477;DHT22;1249;51.270;6.756;2023-05-18T04:12:21;14.80;99.20
2477;DHT22;1249;51.270;6.756;2023-05-18T04:14:46;14.80;99.30
2477;DHT22;1249;51.270;6.756;2023-05-18T04:17:18;14.80;99.40
2477;DHT22;1249;51.270;6.756;2023-05-18T04:19:48;14.80;99.50
2477;DHT22;1249;51.270;6.756;2023-05-18T04:22:14;14.80;99.50
2477;DHT22;1249;51.270;6.756;2023-05-18T04:24:40;14.80;99.60
2477;DHT22;1249;51.270;6.756;2023-05-18T04:27:06;14.80;99.60
2477;DHT22;1249;51.270;6.756;2023-05-18T04:29:33;14.80;99.80
2477;DHT22;1249;51.270;6.756;2023-05-18T04:31:59;14.80;99.80
2477;DHT22;1249;51.270;6.756;2023-05-18T04:34:29;14.80;99.90
2477;DHT22;1249;51.270;6.756;2023-05-18T04:36:55;14.80;99.90
2477;DHT22;1249;51.270;6.756;2023-05-18T04:39:24;14.80;99.90
2477;DHT22;1249;51.270;6.756;2023-05-18T04:41:50;14.80;99.90
2477;DHT22;1249;51.270;6.756;2023-05-18T04:44:26;14.90;99.90
2477;DHT22;1249;51.270;6.756;2023-05-18T04:46:53;14.90;99.90
2477;DHT22;1249;51.270;6.756;2023-05-18T04:49:19;14.90;99.90
2477;DHT22;1249;51.270;6.756;2023-05-18T04:51:51;14.90;99.90
2477;DHT22;1249;51.270;6.756;2023-05-18T04:54:21;14.90;99.90
2477;DHT22;1249;51.270;6.756;2023-05-18T04:56:48;14.90;99.90
2477;DHT22;1249;51.270;6.756;2023-05-18T04:59:13;14.90;99.90
2477;DHT22;1249;51.270;6.756;2023-05-18T05:01:39;14.90;99.90
2477;DHT22;1249;51.270;6.756;2023-05-18T05:04:04;14.90;99.90
2477;DHT22;1249;51.270;6.756;2023-05-18T05:06:30;14.90;99.90
2477;DHT22;1249;51.270;6.756;2023-05-18T05:08:56;14.90;99.90
2477;DHT22;1249;51.270;6.756;2023-05-18T05:11:21;14.90;99.90
2477;DHT22;1249;51.270;6.756;2023-05-18T05:13:47;14.90;99.90
2477;DHT22;1249;51.270;6.756;2023-05-18T05:16:12;15.00;99.90
2477;DHT22;1249;51.270;6.756;2023-05-18T05:18:38;14.90;99.90
2477;DHT22;1249;51.270;6.756;2023-05-18T05:21:03;15.00;99.90
2477;DHT22;1249;51.270;6.756;2023-05-18T05:23:30;15.00;99.90
2477;DHT22;1249;51.270;6.756;2023-05-18T05:25:56;15.00;99.90
2477;DHT22;1249;51.270;6.756;2023-05-18T05:28:22;15.00;99.90
2477;DHT22;1249;51.270;6.756;2023-05-18T05:30:47;15.00;99.90
2477;DHT22;1249;51.270;6.756;2023-05-18T05:33:13;15.30;99.90
2477;DHT22;1249;51.270;6.756;2023-05-18T05:35:38;15.60;99.90
2477;DHT22;1249;51.270;6.756;2023-05-18T05:38:04;15.90;99.90
2477;DHT22;1249;51.270;6.756;2023-05-18T05:40:30;16.10;99.90
2477;DHT22;1249;51.270;6.756;2023-05-18T05:42:56;16.40;99.90
2477;DHT22;1249;51.270;6.756;2023-05-18T05:45:21;16.60;99.90
2477;DHT22;1249;51.270;6.756;2023-05-18T05:47:48;16.70;99.90
2477;DHT22;1249;51.270;6.756;2023-05-18T05:50:13;16.90;99.90
2477;DHT22;1249;51.270;6.756;2023-05-18T05:52:39;17.10;99.90
2477;DHT22;1249;51.270;6.756;2023-05-18T05:55:05;17.30;99.90
2477;DHT22;1249;51.270;6.756;2023-05-18T05:57:30;17.60;99.70
2477;DHT22;1249;51.270;6.756;2023-05-18T05:59:56;17.90;99.10
2477;DHT22;1249;51.270;6.756;2023-05-18T06:02:21;18.10;99.20
2477;DHT22;1249;51.270;6.756;2023-05-18T06:04:47;18.30;98.50
2477;DHT22;1249;51.270;6.756;2023-05-18T06:07:12;18.50;97.50
2477;DHT22;1249;51.270;6.756;2023-05-18T06:09:38;18.80;97.00
2477;DHT22;1249;51.270;6.756;2023-05-18T06:12:04;19.00;96.30
2477;DHT22;1249;51.270;6.756;2023-05-18T06:14:29;19.10;95.70
2477;DHT22;1249;51.270;6.756;2023-05-18T06:16:55;19.20;95.20
2477;DHT22;1249;51.270;6.756;2023-05-18T06:19:21;19.40;94.80
2477;DHT22;1249;51.270;6.756;2023-05-18T06:21:46;19.50;94.40
2477;DHT22;1249;51.270;6.756;2023-05-18T06:24:12;19.70;94.90
2477;DHT22;1249;51.270;6.756;2023-05-18T06:26:37;19.90;94.50
2477;DHT22;1249;51.270;6.756;2023-05-18T06:29:03;20.10;94.20
2477;DHT22;1249;51.270;6.756;2023-05-18T06:31:29;20.20;93.30
2477;DHT22;1249;51.270;6.756;2023-05-18T06:33:55;20.40;92.90
2477;DHT22;1249;51.270;6.756;2023-05-18T06:36:21;20.60;92.50
2477;DHT22;1249;51.270;6.756;2023-05-18T06:38:46;20.70;92.20
2477;DHT22;1249;51.270;6.756;2023-05-18T06:41:12;20.90;91.80
2477;DHT22;1249;51.270;6.756;2023-05-18T06:43:37;21.00;91.40
2477;DHT22;1249;51.270;6.756;2023-05-18T06:46:03;21.10;91.30
2477;DHT22;1249;51.270;6.756;2023-05-18T06:48:28;21.20;91.00
2477;DHT22;1249;51.270;6.756;2023-05-18T06:50:54;21.50;90.70
2477;DHT22;1249;51.270;6.756;2023-05-18T06:53:20;21.70;90.40
2477;DHT22;1249;51.270;6.756;2023-05-18T06:55:47;21.90;89.80
2477;DHT22;1249;51.270;6.756;2023-05-18T06:58:13;22.00;88.90
2477;DHT22;1249;51.270;6.756;2023-05-18T07:00:38;22.10;88.40
2477;DHT22;1249;51.270;6.756;2023-05-18T07:03:04;22.20;88.20
2477;DHT22;1249;51.270;6.756;2023-05-18T07:05:30;22.40;87.70
2477;DHT22;1249;51.270;6.756;2023-05-18T07:07:55;22.50;87.30
2477;DHT22;1249;51.270;6.756;2023-05-18T07:10:21;22.50;87.60
2477;DHT22;1249;51.270;6.756;2023-05-18T07:12:47;22.70;87.70
2477;DHT22;1249;51.270;6.756;2023-05-18T07:15:13;22.70;86.40
2477;DHT22;1249;51.270;6.756;2023-05-18T07:17:39;22.80;82.70
2477;DHT22;1249;51.270;6.756;2023-05-18T07:20:06;22.90;80.50
2477;DHT22;1249;51.270;6.756;2023-05-18T07:22:32;22.90;77.80
2477;DHT22;1249;51.270;6.756;2023-05-18T07:24:58;23.10;77.50
2477;DHT22;1249;51.270;6.756;2023-05-18T07:27:25;23.30;76.20
2477;DHT22;1249;51.270;6.756;2023-05-18T07:29:51;23.60;75.10
2477;DHT22;1249;51.270;6.756;2023-05-18T07:32:16;23.80;74.80
2477;DHT22;1249;51.270;6.756;2023-05-18T07:34:42;23.90;75.50
2477;DHT22;1249;51.270;6.756;2023-05-18T07:37:10;24.10;74.70
2477;DHT22;1249;51.270;6.756;2023-05-18T07:39:36;24.20;74.20
2477;DHT22;1249;51.270;6.756;2023-05-18T07:42:03;24.30;74.40
2477;DHT22;1249;51.270;6.756;2023-05-18T07:44:29;24.40;74.00
2477;DHT22;1249;51.270;6.756;2023-05-18T07:46:54;24.60;73.90
2477;DHT22;1249;51.270;6.756;2023-05-18T07:49:20;24.70;73.30
2477;DHT22;1249;51.270;6.756;2023-05-18T07:51:48;24.90;72.90
2477;DHT22;1249;51.270;6.756;2023-05-18T07:54:13;25.10;73.30
2477;DHT22;1249;51.270;6.756;2023-05-18T07:56:39;25.20;72.80
2477;DHT22;1249;51.270;6.756;2023-05-18T07:59:05;25.40;72.60
2477;DHT22;1249;51.270;6.756;2023-05-18T08:01:31;25.50;72.10
2477;DHT22;1249;51.270;6.756;2023-05-18T08:03:57;25.70;71.60
2477;DHT22;1249;51.270;6.756;2023-05-18T08:06:22;25.90;71.20
2477;DHT22;1249;51.270;6.756;2023-05-18T08:08:48;26.00;70.50
2477;DHT22;1249;51.270;6.756;2023-05-18T08:11:14;26.10;70.50
2477;DHT22;1249;51.270;6.756;2023-05-18T08:13:39;26.30;69.30
2477;DHT22;1249;51.270;6.756;2023-05-18T08:16:05;26.50;67.90
2477;DHT22;1249;51.270;6.756;2023-05-18T08:18:31;26.70;66.80
2477;DHT22;1249;51.270;6.756;2023-05-18T08:20:56;26.80;66.00
2477;DHT22;1249;51.270;6.756;2023-05-18T08:23:23;27.00;65.70
2477;DHT22;1249;51.270;6.756;2023-05-18T08:25:49;27.10;65.50
2477;DHT22;1249;51.270;6.756;2023-05-18T08:28:15;27.30;65.40
2477;DHT22;1249;51.270;6.756;2023-05-18T08:30:41;27.50;65.20
2477;DHT22;1249;51.270;6.756;2023-05-18T08:33:07;27.60;64.80
2477;DHT22;1249;51.270;6.756;2023-05-18T08:35:33;27.80;64.40
2477;DHT22;1249;51.270;6.756;2023-05-18T08:37:59;27.90;64.20
2477;DHT22;1249;51.270;6.756;2023-05-18T08:40:35;28.10;63.70
2477;DHT22;1249;51.270;6.756;2023-05-18T08:43:02;28.30;63.00
2477;DHT22;1249;51.270;6.756;2023-05-18T08:45:51;28.40;62.70
2477;DHT22;1249;51.270;6.756;2023-05-18T08:48:21;28.60;62.50
2477;DHT22;1249;51.270;6.756;2023-05-18T08:50:47;28.70;61.80
2477;DHT22;1249;51.270;6.756;2023-05-18T08:53:15;28.80;61.20
2477;DHT22;1249;51.270;6.756;2023-05-18T08:55:43;29.00;60.20
2477;DHT22;1249;51.270;6.756;2023-05-18T08:58:12;29.20;59.20
2477;DHT22;1249;51.270;6.756;2023-05-18T09:00:41;29.40;58.40
2477;DHT22;1249;51.270;6.756;2023-05-18T09:03:07;29.60;57.90
2477;DHT22;1249;51.270;6.756;2023-05-18T09:05:33;29.80;57.60
2477;DHT22;1249;51.270;6.756;2023-05-18T09:07:59;30.00;56.70
2477;DHT22;1249;51.270;6.756;2023-05-18T09:10:25;29.90;55.40
2477;DHT22;1249;51.270;6.756;2023-05-18T09:12:51;30.10;55.90
2477;DHT22;1249;51.270;6.756;2023-05-18T09:15:19;30.30;55.40
2477;DHT22;1249;51.270;6.756;2023-05-18T09:17:46;30.50;55.20
2477;DHT22;1249;51.270;6.756;2023-05-18T09:20:11;30.80;55.10
2477;DHT22;1249;51.270;6.756;2023-05-18T09:22:38;31.10;54.80
2477;DHT22;1249;51.270;6.756;2023-05-18T09:25:07;31.30;54.30
2477;DHT22;1249;51.270;6.756;2023-05-18T09:27:33;31.60;53.60
2477;DHT22;1249;51.270;6.756;2023-05-18T09:29:59;31.80;52.80
2477;DHT22;1249;51.270;6.756;2023-05-18T09:32:25;32.10;52.40
2477;DHT22;1249;51.270;6.756;2023-05-18T09:34:52;32.30;51.80
2477;DHT22;1249;51.270;6.756;2023-05-18T09:37:18;32.50;51.80
2477;DHT22;1249;51.270;6.756;2023-05-18T09:39:45;32.70;51.50
2477;DHT22;1249;51.270;6.756;2023-05-18T09:42:26;32.80;51.20
2477;DHT22;1249;51.270;6.756;2023-05-18T09:44:52;33.00;50.70
2477;DHT22;1249;51.270;6.756;2023-05-18T09:47:17;33.20;50.70
2477;DHT22;1249;51.270;6.756;2023-05-18T09:49:43;33.40;50.30
2477;DHT22;1249;51.270;6.756;2023-05-18T09:52:08;33.50;50.00
2477;DHT22;1249;51.270;6.756;2023-05-18T09:54:35;33.70;49.90
2477;DHT22;1249;51.270;6.756;2023-05-18T09:57:02;33.80;49.30
2477;DHT22;1249;51.270;6.756;2023-05-18T09:59:29;33.80;49.40
2477;DHT22;1249;51.270;6.756;2023-05-18T10:01:56;33.80;49.10
2477;DHT22;1249;51.270;6.756;2023-05-18T10:04:38;33.80;48.40
2477;DHT22;1249;51.270;6.756;2023-05-18T10:07:14;33.90;47.40
2477;DHT22;1249;51.270;6.756;2023-05-18T10:09:42;33.90;46.30
2477;DHT22;1249;51.270;6.756;2023-05-18T10:12:15;34.10;45.40
2477;DHT22;1249;51.270;6.756;2023-05-18T10:14:42;34.20;44.60
2477;DHT22;1249;51.270;6.756;2023-05-18T10:17:11;34.30;43.70
2477;DHT22;1249;51.270;6.756;2023-05-18T10:19:37;34.60;43.30
2477;DHT22;1249;51.270;6.756;2023-05-18T10:22:05;34.90;43.00
2477;DHT22;1249;51.270;6.756;2023-05-18T10:24:34;35.10;42.90
2477;DHT22;1249;51.270;6.756;2023-05-18T10:27:01;35.40;42.60
2477;DHT22;1249;51.270;6.756;2023-05-18T10:29:31;35.70;42.60
2477;DHT22;1249;51.270;6.756;2023-05-18T10:31:59;35.90;42.70
2477;DHT22;1249;51.270;6.756;2023-05-18T10:34:28;36.10;42.70
2477;DHT22;1249;51.270;6.756;2023-05-18T10:36:55;36.10;42.10
2477;DHT22;1249;51.270;6.756;2023-05-18T10:39:23;36.20;41.10
2477;DHT22;1249;51.270;6.756;2023-05-18T10:41:50;36.20;40.80
2477;DHT22;1249;51.270;6.756;2023-05-18T10:44:18;36.40;40.10
2477;DHT22;1249;51.270;6.756;2023-05-18T10:46:45;36.50;39.90
2477;DHT22;1249;51.270;6.756;2023-05-18T10:49:11;36.80;39.60
2477;DHT22;1249;51.270;6.756;2023-05-18T10:51:40;37.00;39.20
2477;DHT22;1249;51.270;6.756;2023-05-18T10:54:12;37.10;38.50
2477;DHT22;1249;51.270;6.756;2023-05-18T10:56:44;37.20;38.50
2477;DHT22;1249;51.270;6.756;2023-05-18T10:59:12;37.40;38.10
2477;DHT22;1249;51.270;6.756;2023-05-18T11:01:39;37.80;38.00
2477;DHT22;1249;51.270;6.756;2023-05-18T11:04:06;38.00;37.80
2477;DHT22;1249;51.270;6.756;2023-05-18T11:06:32;38.30;37.90
2477;DHT22;1249;51.270;6.756;2023-05-18T11:09:00;38.50;38.30
2477;DHT22;1249;51.270;6.756;2023-05-18T11:11:26;38.70;38.40
2477;DHT22;1249;51.270;6.756;2023-05-18T11:14:01;38.90;38.30
2477;DHT22;1249;51.270;6.756;2023-05-18T11:16:34;39.20;38.20
2477;DHT22;1249;51.270;6.756;2023-05-18T11:19:08;39.40;38.40
2477;DHT22;1249;51.270;6.756;2023-05-18T11:24:32;39.70;38.50
2477;DHT22;1249;51.270;6.756;2023-05-18T11:27:13;39.70;37.90
2477;DHT22;1249;51.270;6.756;2023-05-18T11:29:40;39.70;37.10
2477;DHT22;1249;51.270;6.756;2023-05-18T11:32:33;39.80;36.80
2477;DHT22;1249;51.270;6.756;2023-05-18T11:35:00;40.00;36.40
2477;DHT22;1249;51.270;6.756;2023-05-18T11:40:42;40.40;36.00
2477;DHT22;1249;51.270;6.756;2023-05-18T11:43:08;40.50;35.50
2477;DHT22;1249;51.270;6.756;2023-05-18T11:45:54;40.70;35.40
2477;DHT22;1249;51.270;6.756;2023-05-18T11:48:24;40.70;34.90
2477;DHT22;1249;51.270;6.756;2023-05-18T11:50:54;41.00;34.80
2477;DHT22;1249;51.270;6.756;2023-05-18T11:53:25;41.20;34.50
2477;DHT22;1249;51.270;6.756;2023-05-18T11:55:52;41.20;34.50
2477;DHT22;1249;51.270;6.756;2023-05-18T11:58:24;41.10;34.40
2477;DHT22;1249;51.270;6.756;2023-05-18T12:00:50;41.20;33.80
2477;DHT22;1249;51.270;6.756;2023-05-18T12:03:16;41.20;33.50
2477;DHT22;1249;51.270;6.756;2023-05-18T12:05:43;41.30;33.30
2477;DHT22;1249;51.270;6.756;2023-05-18T12:08:17;41.50;33.20
2477;DHT22;1249;51.270;6.756;2023-05-18T12:10:44;41.60;33.10
2477;DHT22;1249;51.270;6.756;2023-05-18T12:13:12;41.80;33.10
2477;DHT22;1249;51.270;6.756;2023-05-18T12:15:38;42.00;33.20
2477;DHT22;1249;51.270;6.756;2023-05-18T12:18:04;42.20;33.10
2477;DHT22;1249;51.270;6.756;2023-05-18T12:20:30;42.30;33.00
2477;DHT22;1249;51.270;6.756;2023-05-18T12:22:55;42.40;32.90
2477;DHT22;1249;51.270;6.756;2023-05-18T12:25:23;42.50;32.40
2477;DHT22;1249;51.270;6.756;2023-05-18T12:27:50;42.60;32.30
2477;DHT22;1249;51.270;6.756;2023-05-18T12:30:20;42.60;32.30
2477;DHT22;1249;51.270;6.756;2023-05-18T12:32:50;42.60;31.90
2477;DHT22;1249;51.270;6.756;2023-05-18T12:35:16;42.70;31.60
2477;DHT22;1249;51.270;6.756;2023-05-18T12:40:09;42.70;31.70
2477;DHT22;1249;51.270;6.756;2023-05-18T12:42:35;42.90;31.60
2477;DHT22;1249;51.270;6.756;2023-05-18T12:45:00;42.80;31.40
2477;DHT22;1249;51.270;6.756;2023-05-18T12:47:28;42.90;31.50
2477;DHT22;1249;51.270;6.756;2023-05-18T12:50:00;42.90;31.00
2477;DHT22;1249;51.270;6.756;2023-05-18T12:52:26;42.90;30.90
2477;DHT22;1249;51.270;6.756;2023-05-18T12:54:56;43.00;31.00
2477;DHT22;1249;51.270;6.756;2023-05-18T12:57:28;42.60;30.10
2477;DHT22;1249;51.270;6.756;2023-05-18T12:59:59;42.20;31.60
2477;DHT22;1249;51.270;6.756;2023-05-18T13:02:35;42.30;31.80
2477;DHT22;1249;51.270;6.756;2023-05-18T13:05:02;42.40;31.70
2477;DHT22;1249;51.270;6.756;2023-05-18T13:07:28;42.60;31.60
2477;DHT22;1249;51.270;6.756;2023-05-18T13:09:59;42.70;31.40
2477;DHT22;1249;51.270;6.756;2023-05-18T13:12:41;42.80;31.50
2477;DHT22;1249;51.270;6.756;2023-05-18T13:15:17;42.90;31.30
2477;DHT22;1249;51.270;6.756;2023-05-18T13:18:08;43.10;31.30
2477;DHT22;1249;51.270;6.756;2023-05-18T13:20:39;42.70;30.20
2477;DHT22;1249;51.270;6.756;2023-05-18T13:23:08;42.10;31.40
2477;DHT22;1249;51.270;6.756;2023-05-18T13:25:34;42.30;31.80
2477;DHT22;1249;51.270;6.756;2023-05-18T13:28:01;42.60;31.80
2477;DHT22;1249;51.270;6.756;2023-05-18T13:30:27;42.80;31.80
2477;DHT22;1249;51.270;6.756;2023-05-18T13:32:52;42.90;31.80
2477;DHT22;1249;51.270;6.756;2023-05-18T13:35:18;42.90;31.20
2477;DHT22;1249;51.270;6.756;2023-05-18T13:37:46;42.90;31.00
2477;DHT22;1249;51.270;6.756;2023-05-18T13:40:14;43.00;30.70
2477;DHT22;1249;51.270;6.756;2023-05-18T13:42:39;43.10;30.60
2477;DHT22;1249;51.270;6.756;2023-05-18T13:45:05;43.00;30.40
2477;DHT22;1249;51.270;6.756;2023-05-18T13:47:31;43.10;30.40
2477;DHT22;1249;51.270;6.756;2023-05-18T13:49:57;43.10;30.20
2477;DHT22;1249;51.270;6.756;2023-05-18T13:52:22;43.10;30.10
2477;DHT22;1249;51.270;6.756;2023-05-18T13:54:48;43.10;30.00
2477;DHT22;1249;51.270;6.756;2023-05-18T13:57:13;43.10;30.00
2477;DHT22;1249;51.270;6.756;2023-05-18T13:59:39;43.10;30.10
2477;DHT22;1249;51.270;6.756;2023-05-18T14:02:05;43.20;30.10
2477;DHT22;1249;51.270;6.756;2023-05-18T14:04:31;43.20;30.20
2477;DHT22;1249;51.270;6.756;2023-05-18T14:06:56;43.20;30.00
2477;DHT22;1249;51.270;6.756;2023-05-18T14:09:26;43.20;30.00
2477;DHT22;1249;51.270;6.756;2023-05-18T14:11:53;43.20;30.10
2477;DHT22;1249;51.270;6.756;2023-05-18T14:14:19;43.20;30.20
2477;DHT22;1249;51.270;6.756;2023-05-18T14:16:44;43.10;30.10
2477;DHT22;1249;51.270;6.756;2023-05-18T14:19:10;43.10;30.10
2477;DHT22;1249;51.270;6.756;2023-05-18T14:21:36;43.10;30.10
2477;DHT22;1249;51.270;6.756;2023-05-18T14:24:01;43.00;30.40
2477;DHT22;1249;51.270;6.756;2023-05-18T14:26:30;42.90;30.30
2477;DHT22;1249;51.270;6.756;2023-05-18T14:28:55;42.70;30.20
2477;DHT22;1249;51.270;6.756;2023-05-18T14:31:21;42.40;30.20
2477;DHT22;1249;51.270;6.756;2023-05-18T14:33:46;42.00;30.70
2477;DHT22;1249;51.270;6.756;2023-05-18T14:36:12;41.80;30.50
2477;DHT22;1249;51.270;6.756;2023-05-18T14:38:38;41.50;30.40
2477;DHT22;1249;51.270;6.756;2023-05-18T14:41:03;41.40;30.60
2477;DHT22;1249;51.270;6.756;2023-05-18T14:43:30;41.30;31.00
2477;DHT22;1249;51.270;6.756;2023-05-18T14:45:55;41.30;31.10
2477;DHT22;1249;51.270;6.756;2023-05-18T14:48:21;41.20;31.60
2477;DHT22;1249;51.270;6.756;2023-05-18T14:50:47;41.20;31.50
2477;DHT22;1249;51.270;6.756;2023-05-18T14:53:12;41.20;31.40
2477;DHT22;1249;51.270;6.756;2023-05-18T14:55:38;41.30;31.70
2477;DHT22;1249;51.270;6.756;2023-05-18T14:58:04;41.20;31.70
2477;DHT22;1249;51.270;6.756;2023-05-18T15:00:30;41.10;31.60
2477;DHT22;1249;51.270;6.756;2023-05-18T15:02:56;41.10;31.50
2477;DHT22;1249;51.270;6.756;2023-05-18T15:05:21;41.10;31.60
2477;DHT22;1249;51.270;6.756;2023-05-18T15:07:47;41.00;31.60
2477;DHT22;1249;51.270;6.756;2023-05-18T15:10:12;41.00;31.70
2477;DHT22;1249;51.270;6.756;2023-05-18T15:12:38;40.90;31.90
2477;DHT22;1249;51.270;6.756;2023-05-18T15:15:04;40.80;32.10
2477;DHT22;1249;51.270;6.756;2023-05-18T15:17:30;40.60;32.10
2477;DHT22;1249;51.270;6.756;2023-05-18T15:19:55;40.50;32.00
2477;DHT22;1249;51.270;6.756;2023-05-18T15:22:21;40.30;32.00
2477;DHT22;1249;51.270;6.756;2023-05-18T15:24:47;40.10;32.00
2477;DHT22;1249;51.270;6.756;2023-05-18T15:27:13;39.90;32.10
2477;DHT22;1249;51.270;6.756;2023-05-18T15:29:38;39.60;32.10
2477;DHT22;1249;51.270;6.756;2023-05-18T15:32:04;39.30;32.10
2477;DHT22;1249;51.270;6.756;2023-05-18T15:34:30;39.10;32.00
2477;DHT22;1249;51.270;6.756;2023-05-18T15:36:58;38.80;32.20
2477;DHT22;1249;51.270;6.756;2023-05-18T15:39:24;38.40;32.20
2477;DHT22;1249;51.270;6.756;2023-05-18T15:41:50;38.00;32.40
2477;DHT22;1249;51.270;6.756;2023-05-18T15:44:15;37.80;32.70
2477;DHT22;1249;51.270;6.756;2023-05-18T15:46:41;37.60;33.10
2477;DHT22;1249;51.270;6.756;2023-05-18T15:49:07;37.30;33.20
2477;DHT22;1249;51.270;6.756;2023-05-18T15:51:32;37.10;33.60
2477;DHT22;1249;51.270;6.756;2023-05-18T15:53:58;36.90;33.80
2477;DHT22;1249;51.270;6.756;2023-05-18T15:56:23;36.90;34.20
2477;DHT22;1249;51.270;6.756;2023-05-18T15:58:49;36.70;34.40
2477;DHT22;1249;51.270;6.756;2023-05-18T16:01:14;36.60;34.40
2477;DHT22;1249;51.270;6.756;2023-05-18T16:03:40;36.40;34.90
2477;DHT22;1249;51.270;6.756;2023-05-18T16:06:06;36.20;34.80
2477;DHT22;1249;51.270;6.756;2023-05-18T16:08:32;36.10;35.20
2477;DHT22;1249;51.270;6.756;2023-05-18T16:10:57;35.90;35.30
2477;DHT22;1249;51.270;6.756;2023-05-18T16:13:23;35.80;35.80